createdAt,value
2023-04-19T00:01:16.478Z,100.00
2023-04-19T00:03:44.130Z,100.00
2023-04-19T00:06:14.462Z,100.00
2023-04-19T00:08:42.323Z,100.00
2023-04-19T00:11:10.146Z,100.00
2023-04-19T00:13:37.788Z,100.00
2023-04-19T00:16:05.407Z,100.00
2023-04-19T00:18:32.877Z,100.00
2023-04-19T00:21:00.757Z,100.00
2023-04-19T00:23:28.182Z,100.00
2023-04-19T00:25:55.575Z,100.00
2023-04-19T00:28:22.970Z,100.00
2023-04-19T00:30:50.418Z,100.00
2023-04-19T00:33:18.179Z,100.00
2023-04-19T00:35:45.992Z,100.00
2023-04-19T00:38:13.403Z,100.00
2023-04-19T00:40:40.851Z,100.00
2023-04-19T00:43:08.603Z,100.00
2023-04-19T00:45:36.254Z,100.00
2023-04-19T00:48:03.737Z,100.00
2023-04-19T00:50:31.610Z,100.00
2023-04-19T00:52:59.096Z,100.00
2023-04-19T00:55:26.601Z,100.00
2023-04-19T00:57:54.476Z,100.00
2023-04-19T01:00:22.014Z,100.00
2023-04-19T01:02:49.429Z,100.00
2023-04-19T01:05:17.303Z,100.00
2023-04-19T01:07:44.796Z,100.00
2023-04-19T01:10:12.291Z,100.00
2023-04-19T01:12:39.868Z,100.00
2023-04-19T01:15:07.636Z,100.00
2023-04-19T01:17:35.519Z,100.00
2023-04-19T01:20:03.913Z,100.00
2023-04-19T01:22:31.979Z,100.00
2023-04-19T01:24:59.644Z,100.00
2023-04-19T01:27:27.110Z,100.00
2023-04-19T01:29:54.566Z,100.00
2023-04-19T01:32:22.015Z,100.00
2023-04-19T01:34:50.226Z,100.00
2023-04-19T01:37:17.634Z,100.00
2023-04-19T01:39:45.055Z,100.00
2023-04-19T01:42:12.401Z,100.00
2023-04-19T01:44:39.799Z,100.00
2023-04-19T01:47:07.549Z,100.00
2023-04-19T01:49:35.056Z,100.00
2023-04-19T01:52:02.516Z,100.00
2023-04-19T01:54:29.890Z,100.00
2023-04-19T01:56:57.258Z,100.00
2023-04-19T01:59:24.723Z,100.00
2023-04-19T02:01:52.139Z,100.00
2023-04-19T02:04:21.070Z,100.00
2023-04-19T02:06:48.818Z,100.00
2023-04-19T02:09:16.304Z,100.00
2023-04-19T02:11:43.745Z,100.00
2023-04-19T02:14:11.385Z,100.00
2023-04-19T02:16:38.835Z,100.00
2023-04-19T02:19:06.250Z,100.00
2023-04-19T02:21:33.698Z,100.00
2023-04-19T02:24:01.200Z,100.00
2023-04-19T02:26:28.657Z,100.00
2023-04-19T02:28:56.040Z,100.00
2023-04-19T02:31:23.671Z,100.00
2023-04-19T02:33:51.091Z,100.00
2023-04-19T02:36:18.489Z,100.00
2023-04-19T02:38:45.982Z,100.00
2023-04-19T02:41:13.346Z,100.00
2023-04-19T02:43:40.785Z,100.00
2023-04-19T02:46:08.246Z,100.00
2023-04-19T02:48:35.660Z,100.00
2023-04-19T02:51:03.060Z,100.00
2023-04-19T02:53:30.394Z,100.00
2023-04-19T02:55:57.789Z,100.00
2023-04-19T02:58:26.534Z,100.00
2023-04-19T03:00:53.982Z,100.00
2023-04-19T03:03:21.683Z,100.00
2023-04-19T03:05:49.212Z,100.00
2023-04-19T03:08:16.634Z,100.00
2023-04-19T03:10:44.060Z,100.00
2023-04-19T03:13:11.466Z,100.00
2023-04-19T03:15:38.928Z,100.00
2023-04-19T03:18:06.374Z,100.00
2023-04-19T03:20:34.387Z,100.00
2023-04-19T03:23:02.384Z,100.00
2023-04-19T03:25:29.807Z,100.00
2023-04-19T03:27:57.573Z,100.00
2023-04-19T03:30:24.907Z,100.00
2023-04-19T03:32:52.923Z,100.00
2023-04-19T03:35:20.607Z,100.00
2023-04-19T03:37:48.029Z,100.00
2023-04-19T03:40:15.447Z,100.00
2023-04-19T03:42:42.838Z,100.00
2023-04-19T03:45:10.586Z,100.00
2023-04-19T03:47:37.990Z,100.00
2023-04-19T03:50:05.621Z,100.00
2023-04-19T03:52:33.020Z,100.00
2023-04-19T03:55:00.607Z,100.00
2023-04-19T03:57:28.003Z,100.00
2023-04-19T03:59:55.404Z,100.00
2023-04-19T04:02:22.995Z,100.00
2023-04-19T04:04:56.928Z,100.00
2023-04-19T04:07:24.640Z,100.00
2023-04-19T04:09:52.100Z,100.00
2023-04-19T04:12:19.570Z,100.00
2023-04-19T04:14:46.914Z,100.00
2023-04-19T04:17:14.280Z,100.00
2023-04-19T04:19:41.638Z,100.00
2023-04-19T04:22:09.007Z,100.00
2023-04-19T04:24:43.029Z,100.00
2023-04-19T04:27:11.039Z,100.00
2023-04-19T04:29:39.083Z,100.00
2023-04-19T04:32:08.335Z,100.00
2023-04-19T04:34:36.666Z,100.00
2023-04-19T04:37:04.780Z,100.00
2023-04-19T04:39:35.130Z,100.00
2023-04-19T04:42:02.629Z,100.00
2023-04-19T04:44:29.966Z,100.00
2023-04-19T04:46:57.326Z,100.00
2023-04-19T04:49:24.742Z,100.00
2023-04-19T04:51:52.130Z,100.00
2023-04-19T04:54:19.545Z,100.00
2023-04-19T04:56:47.034Z,100.00
2023-04-19T04:59:14.521Z,100.00
2023-04-19T05:01:42.081Z,100.00
2023-04-19T05:04:09.627Z,100.00
2023-04-19T05:06:37.085Z,100.00
2023-04-19T05:09:04.599Z,100.00
2023-04-19T05:11:32.113Z,100.00
2023-04-19T05:13:59.584Z,100.00
2023-04-19T05:16:27.571Z,100.00
2023-04-19T05:18:55.080Z,100.00
2023-04-19T05:21:22.767Z,100.00
2023-04-19T05:23:50.166Z,100.00
2023-04-19T05:26:17.574Z,100.00
2023-04-19T05:28:45.697Z,100.00
2023-04-19T05:31:13.513Z,100.00
2023-04-19T05:33:41.013Z,100.00
2023-04-19T05:36:08.781Z,100.00
2023-04-19T05:38:36.426Z,100.00
2023-04-19T05:41:04.436Z,100.00
2023-04-19T05:43:31.995Z,100.00
2023-04-19T05:45:59.492Z,100.00
2023-04-19T05:48:26.942Z,100.00
2023-04-19T05:50:56.591Z,100.00
2023-04-19T05:53:24.014Z,100.00
2023-04-19T05:55:52.218Z,100.00
2023-04-19T05:58:19.714Z,100.00
2023-04-19T06:00:48.922Z,100.00
2023-04-19T06:03:16.596Z,100.00
2023-04-19T06:05:44.140Z,100.00
2023-04-19T06:08:12.090Z,100.00
2023-04-19T06:10:52.550Z,100.00
2023-04-19T06:13:21.881Z,100.00
2023-04-19T06:15:49.851Z,100.00
2023-04-19T06:18:18.846Z,100.00
2023-04-19T06:20:46.711Z,100.00
2023-04-19T06:23:14.813Z,100.00
2023-04-19T06:25:42.653Z,100.00
2023-04-19T06:28:10.905Z,100.00
2023-04-19T06:30:38.331Z,100.00
2023-04-19T06:33:05.676Z,100.00
2023-04-19T06:35:33.373Z,99.91
2023-04-19T06:38:00.777Z,99.53
2023-04-19T06:40:29.060Z,99.80
2023-04-19T06:42:56.705Z,97.15
2023-04-19T06:45:24.210Z,95.85
2023-04-19T06:47:51.706Z,95.78
2023-04-19T06:50:19.330Z,95.27
2023-04-19T06:52:46.760Z,93.40
2023-04-19T06:55:14.241Z,91.73
2023-04-19T06:57:42.527Z,89.21
2023-04-19T07:00:11.359Z,88.40
2023-04-19T07:02:38.917Z,87.34
2023-04-19T07:05:06.689Z,85.90
2023-04-19T07:07:34.427Z,84.31
2023-04-19T07:10:01.795Z,76.99
2023-04-19T07:12:29.239Z,70.52
2023-04-19T07:14:57.302Z,65.75
2023-04-19T07:17:24.895Z,61.67
2023-04-19T07:19:52.441Z,59.36
2023-04-19T07:22:19.873Z,59.23
2023-04-19T07:24:47.302Z,55.93
2023-04-19T07:27:16.475Z,54.87
2023-04-19T07:29:43.902Z,54.38
2023-04-19T07:32:11.641Z,52.86
2023-04-19T07:34:39.207Z,51.90
2023-04-19T07:37:06.877Z,51.41
2023-04-19T07:39:34.528Z,50.24
2023-04-19T07:42:02.054Z,48.47
2023-04-19T07:44:29.447Z,49.06
2023-04-19T07:46:56.891Z,48.98
2023-04-19T07:49:24.382Z,48.83
2023-04-19T07:51:51.767Z,48.54
2023-04-19T07:54:20.193Z,49.03
2023-04-19T07:56:47.661Z,48.92
2023-04-19T07:59:15.049Z,49.09
2023-04-19T08:01:43.039Z,49.34
2023-04-19T08:04:10.973Z,49.46
2023-04-19T08:06:39.771Z,49.23
2023-04-19T08:09:07.205Z,49.45
2023-04-19T08:11:34.779Z,47.09
2023-04-19T08:14:12.070Z,47.46
2023-04-19T08:19:16.855Z,46.46
2023-04-19T08:21:44.326Z,45.80
2023-04-19T08:24:11.769Z,45.40
2023-04-19T08:26:40.236Z,45.17
2023-04-19T08:29:07.772Z,45.71
2023-04-19T08:31:35.331Z,45.36
2023-04-19T08:34:02.856Z,44.75
2023-04-19T08:36:39.012Z,44.52
2023-04-19T08:39:17.607Z,44.05
2023-04-19T08:41:59.056Z,43.82
2023-04-19T08:44:36.721Z,42.50
2023-04-19T08:47:06.959Z,41.11
2023-04-19T08:49:39.958Z,40.18
2023-04-19T08:52:10.098Z,39.67
2023-04-19T08:54:37.720Z,38.28
2023-04-19T08:57:06.195Z,37.79
2023-04-19T08:59:33.865Z,37.57
2023-04-19T09:02:04.636Z,37.66
2023-04-19T09:04:37.160Z,37.40
2023-04-19T09:07:05.150Z,37.77
2023-04-19T09:09:39.194Z,37.64
2023-04-19T09:12:18.251Z,37.15
2023-04-19T09:14:59.743Z,36.05
2023-04-19T09:17:28.405Z,35.67
2023-04-19T09:19:55.912Z,35.59
2023-04-19T09:22:23.566Z,36.11
2023-04-19T09:27:27.275Z,34.81
2023-04-19T09:29:55.663Z,34.51
2023-04-19T09:32:23.623Z,34.18
2023-04-19T09:34:56.044Z,33.33
2023-04-19T09:37:50.951Z,33.43
2023-04-19T09:40:24.626Z,32.54
2023-04-19T09:43:05.304Z,31.60
2023-04-19T09:45:43.177Z,32.32
2023-04-19T09:48:11.097Z,33.54
2023-04-19T09:50:57.464Z,33.23
2023-04-19T09:53:28.839Z,32.82
2023-04-19T09:56:01.371Z,32.86
2023-04-19T09:58:38.087Z,32.82
2023-04-19T10:01:16.213Z,33.39
2023-04-19T10:03:46.432Z,32.92
2023-04-19T10:06:40.111Z,33.44
2023-04-19T10:09:04.757Z,33.52
2023-04-19T10:11:40.107Z,32.59
2023-04-19T10:14:12.158Z,33.02
2023-04-19T10:16:40.059Z,33.22
2023-04-19T10:19:12.208Z,32.86
2023-04-19T10:21:40.834Z,31.88
2023-04-19T10:24:09.483Z,32.73
2023-04-19T10:26:55.726Z,32.74
2023-04-19T10:29:58.799Z,32.65
2023-04-19T10:32:30.082Z,31.98
2023-04-19T10:35:02.721Z,33.30
2023-04-19T10:37:31.353Z,31.84
2023-04-19T10:39:58.866Z,32.00
2023-04-19T10:42:26.315Z,32.08
2023-04-19T10:45:12.306Z,32.33
2023-04-19T10:47:45.087Z,30.60
2023-04-19T10:50:12.621Z,30.94
2023-04-19T10:52:40.072Z,31.12
2023-04-19T10:55:07.681Z,31.45
2023-04-19T10:57:53.754Z,31.97
2023-04-19T11:00:21.882Z,31.23
2023-04-19T11:02:49.319Z,31.89
2023-04-19T11:05:18.449Z,31.52
2023-04-19T11:07:47.211Z,30.29
2023-04-19T11:10:14.599Z,30.03
2023-04-19T11:12:45.879Z,30.15
2023-04-19T11:15:13.364Z,29.25
2023-04-19T11:17:42.455Z,28.12
2023-04-19T11:20:10.911Z,29.58
2023-04-19T11:22:40.819Z,28.79
2023-04-19T11:25:19.431Z,27.65
2023-04-19T11:27:52.203Z,27.85
2023-04-19T11:30:24.163Z,27.38
2023-04-19T11:32:53.365Z,28.71
2023-04-19T11:35:21.786Z,28.41
2023-04-19T11:37:49.376Z,28.22
2023-04-19T11:40:18.163Z,28.31
2023-04-19T11:42:46.125Z,28.27
2023-04-19T11:45:25.968Z,27.55
2023-04-19T11:47:54.028Z,26.84
2023-04-19T11:50:53.976Z,26.54
2023-04-19T11:53:22.564Z,26.98
2023-04-19T11:55:51.392Z,27.45
2023-04-19T11:58:25.597Z,27.02
2023-04-19T12:00:53.173Z,27.00
2023-04-19T12:03:26.536Z,27.16
2023-04-19T12:05:58.315Z,27.43
2023-04-19T12:08:55.513Z,26.83
2023-04-19T12:11:24.437Z,25.57
2023-04-19T12:14:11.203Z,25.75
2023-04-19T12:16:39.007Z,24.70
2023-04-19T12:19:20.441Z,24.86
2023-04-19T12:21:48.604Z,23.59
2023-04-19T12:24:16.779Z,23.45
2023-04-19T12:26:55.845Z,23.39
2023-04-19T12:29:23.813Z,23.75
2023-04-19T12:31:51.228Z,23.57
2023-04-19T12:34:18.762Z,23.22
2023-04-19T12:36:46.142Z,23.44
2023-04-19T12:39:13.671Z,22.86
2023-04-19T12:41:41.251Z,22.85
2023-04-19T12:44:08.650Z,23.26
2023-04-19T12:46:36.699Z,22.94
2023-04-19T12:49:04.136Z,22.82
2023-04-19T12:51:31.781Z,23.49
2023-04-19T12:53:59.765Z,24.60
2023-04-19T12:56:27.213Z,24.32
2023-04-19T12:58:54.589Z,25.12
2023-04-19T13:01:22.054Z,24.88
2023-04-19T13:03:49.781Z,24.63
2023-04-19T13:06:17.692Z,24.19
2023-04-19T13:08:47.423Z,24.65
2023-04-19T13:11:16.054Z,24.12
2023-04-19T13:13:43.709Z,24.07
2023-04-19T13:16:11.519Z,24.10
2023-04-19T13:18:39.144Z,23.23
2023-04-19T13:21:08.515Z,24.14
2023-04-19T13:23:39.731Z,24.55
2023-04-19T13:26:07.519Z,25.13
2023-04-19T13:28:36.645Z,25.29
2023-04-19T13:31:04.936Z,26.02
2023-04-19T13:33:32.376Z,27.47
2023-04-19T13:35:59.779Z,27.91
2023-04-19T13:38:27.353Z,27.88
2023-04-19T13:40:54.740Z,27.76
2023-04-19T13:43:22.216Z,27.96
2023-04-19T13:45:49.652Z,28.91
2023-04-19T13:48:17.271Z,28.67
2023-04-19T13:50:44.767Z,28.32
2023-04-19T13:53:12.300Z,27.76
2023-04-19T13:55:39.660Z,27.77
2023-04-19T13:58:07.016Z,27.66
2023-04-19T14:00:34.900Z,28.22
2023-04-19T14:03:02.694Z,28.16
2023-04-19T14:05:30.230Z,28.70
2023-04-19T14:07:57.727Z,28.88
2023-04-19T14:10:25.101Z,29.30
2023-04-19T14:12:53.137Z,28.52
2023-04-19T14:15:21.461Z,28.86
2023-04-19T14:17:48.979Z,28.46
2023-04-19T14:20:17.249Z,28.47
2023-04-19T14:22:44.912Z,28.35
2023-04-19T14:25:15.041Z,28.59
2023-04-19T14:27:42.563Z,28.43
2023-04-19T14:30:10.326Z,28.21
2023-04-19T14:32:38.267Z,28.02
2023-04-19T14:35:06.385Z,28.14
2023-04-19T14:37:33.825Z,28.19
2023-04-19T14:40:01.371Z,28.15
2023-04-19T14:42:28.830Z,28.28
2023-04-19T14:44:56.290Z,28.33
2023-04-19T14:47:23.728Z,28.21
2023-04-19T14:49:51.253Z,28.09
2023-04-19T14:52:18.851Z,28.57
2023-04-19T14:54:46.319Z,28.42
2023-04-19T14:57:14.108Z,28.69
2023-04-19T14:59:41.766Z,28.73
2023-04-19T15:02:10.575Z,28.71
2023-04-19T15:04:40.731Z,29.26
2023-04-19T15:07:08.977Z,29.53
2023-04-19T15:09:36.462Z,29.45
2023-04-19T15:12:04.015Z,29.71
2023-04-19T15:14:31.464Z,30.07
2023-04-19T15:16:58.828Z,30.44
2023-04-19T15:19:26.449Z,30.77
2023-04-19T15:21:53.822Z,31.02
2023-04-19T15:24:21.239Z,31.42
2023-04-19T15:26:48.665Z,31.69
2023-04-19T15:29:16.343Z,32.40
2023-04-19T15:31:44.057Z,32.94
2023-04-19T15:34:11.425Z,33.25
2023-04-19T15:36:40.378Z,33.48
2023-04-19T15:39:07.775Z,33.22
2023-04-19T15:41:35.199Z,33.67
2023-04-19T15:44:02.587Z,33.84
2023-04-19T15:46:30.079Z,34.02
2023-04-19T15:48:58.711Z,35.18
2023-04-19T15:51:26.893Z,35.28
2023-04-19T15:53:54.295Z,35.84
2023-04-19T15:56:21.688Z,35.88
2023-04-19T15:58:49.068Z,35.94
2023-04-19T16:01:18.881Z,36.59
2023-04-19T16:03:46.827Z,37.15
2023-04-19T16:06:14.290Z,38.49
2023-04-19T16:08:41.709Z,37.90
2023-04-19T16:11:09.202Z,38.29
2023-04-19T16:13:36.710Z,38.69
2023-04-19T16:16:04.133Z,38.71
2023-04-19T16:18:31.568Z,39.25
2023-04-19T16:20:59.027Z,39.06
2023-04-19T16:23:26.433Z,38.51
2023-04-19T16:25:55.494Z,38.50
2023-04-19T16:28:24.250Z,38.80
2023-04-19T16:30:51.651Z,38.93
2023-04-19T16:33:19.105Z,39.13
2023-04-19T16:35:46.540Z,39.20
2023-04-19T16:38:13.991Z,39.33
2023-04-19T16:40:41.473Z,39.70
2023-04-19T16:43:08.804Z,39.63
2023-04-19T16:45:36.260Z,39.29
2023-04-19T16:48:03.742Z,39.51
2023-04-19T16:50:31.180Z,40.15
2023-04-19T16:52:58.551Z,40.17
2023-04-19T16:55:26.137Z,40.67
2023-04-19T16:57:55.513Z,40.97
2023-04-19T17:00:25.709Z,42.05
2023-04-19T17:02:56.060Z,41.59
2023-04-19T17:05:23.768Z,42.23
2023-04-19T17:07:51.611Z,41.57
2023-04-19T17:10:19.092Z,42.03
2023-04-19T17:12:46.495Z,41.41
2023-04-19T17:15:13.871Z,41.32
2023-04-19T17:17:42.705Z,41.32
2023-04-19T17:20:10.634Z,41.43
2023-04-19T17:22:38.093Z,41.34
2023-04-19T17:25:05.916Z,41.60
2023-04-19T17:27:33.477Z,41.33
2023-04-19T17:30:00.926Z,41.17
2023-04-19T17:32:28.324Z,40.96
2023-04-19T17:34:55.711Z,40.78
2023-04-19T17:37:23.238Z,40.81
2023-04-19T17:39:50.676Z,40.61
2023-04-19T17:42:18.110Z,40.83
2023-04-19T17:44:45.525Z,40.72
2023-04-19T17:47:13.070Z,40.59
2023-04-19T17:49:40.466Z,41.33
2023-04-19T17:52:07.906Z,41.63
2023-04-19T17:54:35.289Z,41.40
2023-04-19T17:57:02.821Z,41.75
2023-04-19T17:59:30.298Z,41.87
2023-04-19T18:01:57.915Z,42.09
2023-04-19T18:04:25.442Z,42.10
2023-04-19T18:06:53.010Z,42.13
2023-04-19T18:09:21.265Z,42.04
2023-04-19T18:11:48.691Z,42.33
2023-04-19T18:14:16.276Z,41.98
2023-04-19T18:16:43.724Z,42.35
2023-04-19T18:19:11.188Z,42.20
2023-04-19T18:21:38.624Z,42.41
2023-04-19T18:24:06.255Z,43.04
2023-04-19T18:26:43.454Z,43.29
2023-04-19T18:29:12.220Z,44.67
2023-04-19T18:31:39.699Z,46.23
2023-04-19T18:34:07.095Z,48.10
2023-04-19T18:36:34.516Z,50.19
2023-04-19T18:39:01.928Z,52.29
2023-04-19T18:41:29.312Z,53.78
2023-04-19T18:46:27.088Z,61.52
2023-04-19T18:48:54.603Z,67.47
2023-04-19T18:51:22.030Z,72.34
2023-04-19T18:53:51.755Z,73.33
2023-04-19T18:56:19.363Z,75.03
2023-04-19T18:58:48.201Z,76.60
2023-04-19T19:01:15.879Z,76.93
2023-04-19T19:06:14.252Z,78.44
2023-04-19T19:08:41.769Z,79.07
2023-04-19T19:11:29.231Z,78.07
2023-04-19T19:13:56.726Z,79.13
2023-04-19T19:16:25.312Z,79.77
2023-04-19T19:18:53.274Z,79.43
2023-04-19T19:21:20.852Z,79.14
2023-04-19T19:23:48.299Z,78.96
2023-04-19T19:26:15.904Z,79.56
2023-04-19T19:28:43.460Z,80.50
2023-04-19T19:31:11.003Z,81.23
2023-04-19T19:33:39.979Z,81.09
2023-04-19T19:36:08.287Z,81.41
2023-04-19T19:38:36.122Z,81.59
2023-04-19T19:43:36.492Z,82.96
2023-04-19T19:46:03.939Z,81.99
2023-04-19T19:48:37.137Z,82.77
2023-04-19T19:51:41.735Z,82.83
2023-04-19T19:53:55.089Z,82.57
2023-04-19T19:56:24.485Z,82.37
2023-04-19T19:58:52.440Z,81.99
2023-04-19T20:01:22.534Z,80.83
2023-04-19T20:03:50.887Z,80.40
2023-04-19T20:07:03.340Z,79.79
2023-04-19T20:09:05.934Z,79.07
2023-04-19T20:11:33.359Z,80.02
2023-04-19T20:14:00.787Z,79.38
2023-04-19T20:16:29.095Z,79.66
2023-04-19T20:18:57.713Z,80.67
2023-04-19T20:21:25.084Z,79.77
2023-04-19T20:23:52.579Z,81.00
2023-04-19T20:26:20.032Z,81.71
2023-04-19T20:28:47.407Z,81.07
2023-04-19T20:31:14.792Z,79.84
2023-04-19T20:33:42.127Z,78.20
2023-04-19T20:36:09.659Z,74.40
2023-04-19T20:38:37.233Z,70.76
2023-04-19T20:41:04.646Z,63.63
2023-04-19T20:43:32.475Z,61.17
2023-04-19T20:46:00.097Z,56.34
2023-04-19T20:48:27.593Z,53.78
2023-04-19T20:50:55.006Z,51.42
2023-04-19T20:53:22.635Z,45.85
2023-04-19T20:55:50.141Z,44.51
2023-04-19T20:58:17.604Z,42.16
2023-04-19T21:00:44.997Z,39.99
2023-04-19T21:03:12.584Z,38.73
2023-04-19T21:05:40.143Z,37.54
2023-04-19T21:08:07.548Z,36.76
2023-04-19T21:10:34.922Z,35.74
2023-04-19T21:13:02.524Z,35.67
2023-04-19T21:15:29.883Z,36.69
2023-04-19T21:17:57.359Z,35.36
2023-04-19T21:20:24.731Z,35.23
2023-04-19T21:22:52.067Z,35.31
2023-04-19T21:25:19.496Z,35.12
2023-04-19T21:27:46.899Z,34.97
2023-04-19T21:30:14.544Z,34.95
2023-04-19T21:32:42.083Z,35.18
2023-04-19T21:35:09.818Z,35.30
2023-04-19T21:37:37.508Z,34.60
2023-04-19T21:40:05.156Z,34.75
2023-04-19T21:42:32.571Z,34.73
2023-04-19T21:45:00.030Z,34.50
2023-04-19T21:47:27.560Z,34.66
2023-04-19T21:49:55.035Z,34.35
2023-04-19T21:52:22.599Z,34.47
2023-04-19T21:54:50.037Z,34.28
2023-04-19T21:57:21.842Z,34.30
2023-04-19T21:59:49.265Z,34.57
2023-04-19T22:02:16.804Z,34.59
2023-04-19T22:04:44.770Z,34.35
2023-04-19T22:07:12.531Z,34.29
2023-04-19T22:09:40.281Z,34.30
2023-04-19T22:12:09.300Z,34.36
2023-04-19T22:14:36.686Z,34.46
2023-04-19T22:17:04.548Z,34.81
2023-04-19T22:19:32.028Z,34.55
2023-04-19T22:21:59.392Z,34.38
2023-04-19T22:24:26.809Z,34.84
2023-04-19T22:26:54.193Z,35.22
2023-04-19T22:29:21.653Z,35.20
2023-04-19T22:31:49.137Z,35.63
2023-04-19T22:34:16.553Z,35.42
2023-04-19T22:36:43.936Z,35.99
2023-04-19T22:39:11.482Z,35.73
2023-04-19T22:41:38.850Z,35.95
2023-04-19T22:44:06.313Z,36.22
2023-04-19T22:46:33.945Z,36.91
2023-04-19T22:49:01.985Z,36.87
2023-04-19T22:51:29.364Z,37.33
2023-04-19T22:53:57.868Z,37.16
2023-04-19T22:56:25.272Z,37.77
2023-04-19T22:58:52.635Z,37.74
2023-04-19T23:01:20.045Z,37.99
2023-04-19T23:03:47.519Z,37.93
2023-04-19T23:06:15.039Z,38.05
2023-04-19T23:08:42.464Z,38.59
2023-04-19T23:11:10.682Z,38.89
2023-04-19T23:13:41.289Z,38.35
2023-04-19T23:16:10.847Z,39.76
2023-04-19T23:18:40.251Z,39.28
2023-04-19T23:21:07.769Z,39.35
2023-04-19T23:23:35.292Z,39.61
2023-04-19T23:26:02.747Z,39.79
2023-04-19T23:28:30.242Z,39.81
2023-04-19T23:30:57.778Z,39.32
2023-04-19T23:33:25.446Z,39.77
2023-04-19T23:35:52.842Z,39.78
2023-04-19T23:38:20.817Z,40.30
2023-04-19T23:40:48.283Z,40.55
2023-04-19T23:43:15.728Z,40.75
2023-04-19T23:45:43.103Z,41.39
2023-04-19T23:48:10.516Z,41.71
2023-04-19T23:50:37.949Z,41.80
2023-04-19T23:53:05.641Z,42.26
2023-04-19T23:55:33.082Z,42.37
2023-04-19T23:58:00.651Z,42.82
